Portada
METAR-TAF:

METAR-TAF

Aeroports :

Hilton Head Airport

Hilton Head Island, Carolina del Sud, Estats Units d'Amèrica

latitud: 32-13N, longitud: 080-42W, altitud: 6 m

Observació

L'informe es va fer fa 1 hora i 11 minuts, a les 11:50 UTC
Vent 5 kt del Oest/Sud-Oest
Temperatura 11°C
Humitat 76%
Pressió 1011 hPa
Visibilitat: 16.1 km
Núvols disperses a una alçada de 20000 ft

METAR: KHXD 191150Z 24005KT 10SM SCT200 11/07 A2985

Hora: 08:01 (13:01 UTC)


TAF: manca

Observacions i pronòstics meteorològics de més de 4000 aeroports (METAR i TAF).

Les estacions disponibles són els punts grocs i vermells al mapa.

Posi el ratolí al punt desitjat per veure el nom de l'estació.

Feu clic per veure les observacions i els pronòstics meteorològics.

Per canviar el mapa: feu clic els botons verds amb una creu de color negre per apropar; al botó verd amb un guió per allunyar la imatge; o en les fletxes verdes per a mapes adjacents.


METAR-TAF: